Time;durP1;ratioP1;P1;durP2;ratioP2;P2;SDS_P1;SDS_P2;PMS_P1;PMS_P2;Temp;Humidity;BMP_temperature;BMP_pressure;BME280_temperature;BME280_humidity;BME280_pressure;Samples;Min_cycle;Max_cycle;Signal;HPM_P1;HPM_P2
2021/12/15 00:02:09;;;;;;;8.32;5.05;;;12.50;96.10;;;;;;5037342;28;20021;-76
2021/12/15 00:04:35;;;;;;;10.90;5.60;;;12.60;96.20;;;;;;5054929;28;20029;-76
2021/12/15 00:07:00;;;;;;;12.18;5.50;;;12.60;96.20;;;;;;5048978;28;20389;-76
2021/12/15 00:09:29;;;;;;;16.95;6.68;;;12.50;96.20;;;;;;5035444;28;20074;-76
2021/12/15 00:11:55;;;;;;;16.52;7.35;;;12.50;96.20;;;;;;5035066;28;20025;-76
2021/12/15 00:14:21;;;;;;;10.07;4.78;;;12.50;96.20;;;;;;5035281;28;20056;-76
2021/12/15 00:16:49;;;;;;;9.35;4.00;;;12.50;96.30;;;;;;5035488;28;20462;-76
2021/12/15 00:19:14;;;;;;;10.90;4.95;;;12.50;96.30;;;;;;5034617;28;20033;-77
2021/12/15 00:21:40;;;;;;;15.20;5.55;;;12.50;96.30;;;;;;5043726;28;20065;-76
2021/12/15 00:24:07;;;;;;;9.65;5.13;;;12.50;96.30;;;;;;5041813;28;20037;-77
2021/12/15 00:26:34;;;;;;;14.52;5.75;;;12.50;96.30;;;;;;5054298;28;20029;-77
2021/12/15 00:29:02;;;;;;;10.80;5.65;;;12.50;96.60;;;;;;5054927;28;20449;-77
2021/12/15 00:31:30;;;;;;;7.50;4.85;;;12.50;96.30;;;;;;5052926;28;20033;-77
2021/12/15 00:33:56;;;;;;;9.35;5.35;;;12.50;96.30;;;;;;5051077;28;20052;-77
2021/12/15 00:36:21;;;;;;;14.57;6.75;;;12.50;96.40;;;;;;5034954;28;20469;-76
2021/12/15 00:38:47;;;;;;;10.80;4.43;;;12.50;96.40;;;;;;5034563;28;20033;-77
2021/12/15 00:41:14;;;;;;;12.80;5.30;;;12.50;96.40;;;;;;5045494;28;20025;-76
2021/12/15 00:43:40;;;;;;;16.15;5.38;;;12.50;96.40;;;;;;5041173;28;20442;-76
2021/12/15 00:46:07;;;;;;;19.77;6.72;;;12.50;96.30;;;;;;5034934;28;20025;-76
2021/12/15 00:48:34;;;;;;;22.63;7.15;;;12.60;96.30;;;;;;5034792;28;20070;-76
2021/12/15 00:51:00;;;;;;;12.80;5.28;;;12.60;96.30;;;;;;5040882;28;20045;-76
2021/12/15 00:53:26;;;;;;;17.38;6.20;;;12.60;96.20;;;;;;5053445;28;20533;-77
2021/12/15 00:55:52;;;;;;;18.90;5.60;;;12.60;96.20;;;;;;5046374;28;20146;-77
2021/12/15 00:58:17;;;;;;;12.00;6.65;;;12.60;96.20;;;;;;5041729;28;20116;-76
2021/12/15 01:00:51;;;;;;;24.25;7.82;;;12.60;96.20;;;;;;5052551;28;20029;-76
2021/12/15 01:03:20;;;;;;;14.27;4.47;;;12.60;96.20;;;;;;5040928;28;20036;-76
2021/12/15 01:05:50;;;;;;;12.95;6.30;;;12.60;96.20;;;;;;5045047;28;20491;-76
2021/12/15 01:08:26;;;;;;;13.60;6.50;;;12.60;96.20;;;;;;5033670;28;20033;-76
2021/12/15 01:11:50;;;;;;;6.80;3.65;;;12.60;96.20;;;;;;5034629;28;20072;-77
2021/12/15 01:19:47;;;;;;;10.85;5.05;;;12.60;96.20;;;;;;5051279;28;20035;-76
2021/12/15 01:22:13;;;;;;;14.90;6.97;;;12.60;96.20;;;;;;5045559;28;20029;-76
2021/12/15 01:24:43;;;;;;;17.08;5.85;;;12.60;96.20;;;;;;5047288;28;20060;-76
2021/12/15 01:27:08;;;;;;;16.33;8.32;;;12.60;96.30;;;;;;5047624;28;20040;-77
2021/12/15 01:29:37;;;;;;;3.47;2.35;;;12.60;96.30;;;;;;5044294;28;20369;-77
2021/12/15 01:32:03;;;;;;;11.95;6.38;;;12.60;96.30;;;;;;5033888;28;20063;-77
2021/12/15 01:34:29;;;;;;;13.43;5.55;;;12.60;96.30;;;;;;5045439;28;20047;-77
2021/12/15 01:36:58;;;;;;;4.60;3.28;;;12.60;96.30;;;;;;5045094;28;20047;-77
2021/12/15 01:39:25;;;;;;;9.00;4.20;;;12.50;96.30;;;;;;5032454;28;20042;-76
2021/12/15 01:41:55;;;;;;;4.60;3.03;;;12.60;96.30;;;;;;5035730;28;20025;-76
2021/12/15 01:46:56;;;;;;;8.07;4.45;;;12.60;96.30;;;;;;5042368;28;20056;-76
2021/12/15 01:49:29;;;;;;;7.43;2.97;;;12.60;96.30;;;;;;5046168;28;20044;-77
2021/12/15 01:51:59;;;;;;;9.20;4.25;;;12.60;96.30;;;;;;5046273;28;20396;-76
2021/12/15 01:54:26;;;;;;;9.20;5.00;;;12.60;96.20;;;;;;5040517;28;20529;-77
2021/12/15 01:56:51;;;;;;;8.57;4.35;;;12.60;96.20;;;;;;5049726;28;20040;-79
2021/12/15 01:59:20;;;;;;;10.93;4.13;;;12.60;96.20;;;;;;5044991;28;20038;-78
2021/12/15 02:01:46;;;;;;;12.45;3.75;;;12.60;96.20;;;;;;5045739;28;20499;-77
2021/12/15 02:04:12;;;;;;;9.23;4.40;;;12.70;96.20;;;;;;5041247;28;20033;-77
2021/12/15 02:06:42;;;;;;;15.10;4.82;;;12.60;96.20;;;;;;5044925;28;20037;-77
2021/12/15 02:09:09;;;;;;;4.35;2.65;;;12.60;96.20;;;;;;5034005;28;20044;-77
2021/12/15 02:11:35;;;;;;;13.60;5.25;;;12.60;96.20;;;;;;5036599;28;20072;-76
2021/12/15 02:14:00;;;;;;;10.43;4.85;;;12.60;96.20;;;;;;5037717;28;20041;-77
2021/12/15 02:16:27;;;;;;;9.38;5.15;;;12.70;96.20;;;;;;5040313;28;20385;-77
2021/12/15 02:18:54;;;;;;;17.83;7.47;;;12.60;96.20;;;;;;5039951;28;20480;-77
2021/12/15 02:21:22;;;;;;;13.75;5.80;;;12.70;96.20;;;;;;5051179;28;20586;-77
2021/12/15 02:23:53;;;;;;;10.27;5.10;;;12.70;96.20;;;;;;5040542;28;20541;-77
2021/12/15 02:26:27;;;;;;;10.13;4.95;;;12.60;96.20;;;;;;5032144;28;20057;-77
2021/12/15 02:28:59;;;;;;;15.00;4.53;;;12.60;96.30;;;;;;5039393;28;20029;-77
2021/12/15 02:39:10;;;;;;;10.45;5.10;;;12.70;96.30;;;;;;5037302;28;20087;-77
2021/12/15 02:41:38;;;;;;;9.75;5.35;;;12.60;96.20;;;;;;5039177;28;20473;-77
2021/12/15 02:44:08;;;;;;;11.55;5.35;;;12.70;96.30;;;;;;5032208;28;20045;-77
2021/12/15 02:46:35;;;;;;;10.75;5.35;;;12.70;96.30;;;;;;5031966;28;20464;-77
2021/12/15 02:49:03;;;;;;;8.18;4.60;;;12.70;96.30;;;;;;5059109;28;20044;-77
2021/12/15 02:51:29;;;;;;;8.82;2.80;;;12.60;96.30;;;;;;5043130;28;20055;-77
2021/12/15 02:53:57;;;;;;;13.70;4.35;;;12.70;96.30;;;;;;5051464;28;20033;-76
2021/12/15 02:56:23;;;;;;;16.40;5.15;;;12.60;96.30;;;;;;5041236;28;20108;-77
2021/12/15 02:58:55;;;;;;;20.65;7.97;;;12.70;96.30;;;;;;5045846;28;20112;-77
2021/12/15 03:01:39;;;;;;;12.27;6.43;;;12.70;96.30;;;;;;5051971;28;20029;-77
2021/12/15 03:04:26;;;;;;;11.73;5.43;;;12.60;96.20;;;;;;5037817;28;20513;-77
2021/12/15 03:07:10;;;;;;;11.70;5.55;;;12.60;96.30;;;;;;5043591;28;20060;-77
2021/12/15 03:15:30;;;;;;;12.75;7.10;;;12.70;96.40;;;;;;5044149;28;20688;-76
2021/12/15 03:17:58;;;;;;;12.50;6.03;;;12.60;96.40;;;;;;5032460;28;20040;-77
2021/12/15 03:20:25;;;;;;;9.25;5.85;;;12.60;96.40;;;;;;5035307;28;20025;-76
2021/12/15 03:22:51;;;;;;;24.08;9.32;;;12.60;96.40;;;;;;5052275;28;20106;-77
2021/12/15 03:25:17;;;;;;;18.85;8.35;;;12.70;96.40;;;;;;5038855;28;20021;-77
2021/12/15 03:33:33;;;;;;;16.05;7.57;;;12.60;96.40;;;;;;5032423;28;20401;-76
2021/12/15 03:36:07;;;;;;;17.35;8.68;;;12.60;96.40;;;;;;5049350;28;20053;-76
2021/12/15 03:38:34;;;;;;;23.98;8.27;;;12.60;96.60;;;;;;5055268;28;20048;-76
2021/12/15 03:41:01;;;;;;;8.73;4.97;;;12.70;96.40;;;;;;5049324;28;20022;-76
2021/12/15 03:43:27;;;;;;;15.75;7.10;;;12.60;96.40;;;;;;5035156;28;20172;-76
2021/12/15 03:45:59;;;;;;;18.15;8.18;;;12.60;96.40;;;;;;5042947;28;20107;-77
2021/12/15 03:48:28;;;;;;;14.50;5.18;;;12.60;96.40;;;;;;5054910;28;20040;-77
2021/12/15 03:50:56;;;;;;;8.85;5.15;;;12.60;96.40;;;;;;5055717;28;20056;-76
2021/12/15 03:53:23;;;;;;;14.35;6.10;;;12.60;96.40;;;;;;5042241;28;20444;-77
2021/12/15 03:55:49;;;;;;;12.20;4.78;;;12.60;96.40;;;;;;5045474;28;20033;-76
2021/12/15 03:58:16;;;;;;;14.13;6.15;;;12.60;96.40;;;;;;5048893;28;20025;-76
2021/12/15 04:00:50;;;;;;;18.33;7.53;;;12.70;96.40;;;;;;5035667;28;20037;-77
2021/12/15 04:03:17;;;;;;;12.13;5.53;;;12.60;96.30;;;;;;5053473;28;20376;-77
2021/12/15 04:05:43;;;;;;;15.52;5.55;;;12.60;96.30;;;;;;5055364;28;20025;-77
2021/12/15 04:08:09;;;;;;;17.73;7.35;;;12.60;96.30;;;;;;5051461;28;20091;-77
2021/12/15 04:10:36;;;;;;;18.25;5.85;;;12.60;96.30;;;;;;5054856;28;20025;-77
2021/12/15 04:13:02;;;;;;;15.25;7.78;;;12.60;96.30;;;;;;5052764;28;20095;-76
2021/12/15 04:15:30;;;;;;;23.30;9.02;;;12.70;96.40;;;;;;5035434;28;20064;-77
2021/12/15 04:18:01;;;;;;;15.63;7.72;;;12.60;96.40;;;;;;5051042;28;20113;-76
2021/12/15 04:20:34;;;;;;;9.88;3.63;;;12.60;96.40;;;;;;5045122;28;20108;-76
2021/12/15 04:23:00;;;;;;;;;;;12.70;96.40;;;;;;5054081;28;20036;-76
2021/12/15 04:25:29;;;;;;;11.65;5.85;;;12.60;96.40;;;;;;5054732;28;19909;-77
2021/12/15 04:28:01;;;;;;;23.90;8.98;;;12.60;96.30;;;;;;5045671;28;20029;-77
2021/12/15 04:30:28;;;;;;;20.30;8.60;;;12.60;96.40;;;;;;5048083;28;20069;-77
2021/12/15 04:32:59;;;;;;;14.27;7.35;;;12.60;96.40;;;;;;5035103;28;20030;-77
2021/12/15 04:35:25;;;;;;;23.08;11.02;;;12.60;96.40;;;;;;5034795;28;20065;-76
2021/12/15 04:37:51;;;;;;;16.63;8.77;;;12.60;96.40;;;;;;5034425;28;20072;-77
2021/12/15 04:40:19;;;;;;;19.02;7.32;;;12.60;96.40;;;;;;5037153;28;20538;-76
2021/12/15 04:42:45;;;;;;;20.70;8.82;;;12.60;96.50;;;;;;5055054;28;20036;-76
2021/12/15 04:45:15;;;;;;;20.65;8.27;;;12.60;96.50;;;;;;5054094;28;20032;-77
2021/12/15 04:47:41;;;;;;;22.23;8.20;;;12.60;96.50;;;;;;5043988;28;20506;-76
2021/12/15 04:50:09;;;;;;;16.23;4.80;;;12.60;96.50;;;;;;5038476;28;20052;-77
2021/12/15 04:52:35;;;;;;;11.90;6.03;;;12.60;96.50;;;;;;5053101;28;20025;-76
2021/12/15 04:55:03;;;;;;;8.82;5.10;;;12.60;96.50;;;;;;5054319;28;20427;-76
2021/12/15 04:57:29;;;;;;;21.45;7.45;;;12.60;96.40;;;;;;5054651;28;20490;-77
2021/12/15 04:59:55;;;;;;;16.77;6.40;;;12.60;96.40;;;;;;5040434;28;20061;-76
2021/12/15 05:02:22;;;;;;;17.52;8.60;;;12.60;96.40;;;;;;5054527;28;20029;-77
2021/12/15 05:04:49;;;;;;;14.55;7.78;;;12.60;96.40;;;;;;5048777;28;20018;-76
2021/12/15 05:07:16;;;;;;;14.13;6.20;;;12.60;96.40;;;;;;5045796;28;20033;-77
2021/12/15 05:09:44;;;;;;;23.42;5.95;;;12.60;96.50;;;;;;5034150;28;20040;-77
2021/12/15 05:12:11;;;;;;;11.25;5.47;;;12.60;96.50;;;;;;5034621;28;20067;-76
2021/12/15 05:14:36;;;;;;;16.17;7.30;;;12.60;96.40;;;;;;5049043;28;20530;-76
2021/12/15 05:17:03;;;;;;;16.58;5.97;;;12.60;96.40;;;;;;5045268;28;20112;-76
2021/12/15 05:19:29;;;;;;;5.97;3.95;;;12.60;96.40;;;;;;5049737;28;20397;-76
2021/12/15 05:21:58;;;;;;;11.65;5.35;;;12.60;96.40;;;;;;5043697;28;20036;-76
2021/12/15 05:26:55;;;;;;;19.20;8.05;;;12.60;96.40;;;;;;5051091;28;20025;-77
2021/12/15 05:29:21;;;;;;;8.38;3.88;;;12.60;96.40;;;;;;5040639;28;20036;-77
2021/12/15 05:31:47;;;;;;;9.10;3.90;;;12.60;96.40;;;;;;5042911;28;20040;-76
2021/12/15 05:34:13;;;;;;;15.65;5.57;;;12.60;96.40;;;;;;5033734;28;20037;-76
2021/12/15 05:36:39;;;;;;;12.60;5.50;;;12.60;96.40;;;;;;5047308;28;20475;-77
2021/12/15 05:39:06;;;;;;;9.02;5.00;;;12.60;96.30;;;;;;5046418;28;20041;-76
2021/12/15 05:41:35;;;;;;;18.27;6.70;;;12.70;96.40;;;;;;5044235;28;20071;-76
2021/12/15 05:44:03;;;;;;;8.65;3.97;;;12.60;96.60;;;;;;5033860;28;20026;-77
2021/12/15 05:46:29;;;;;;;17.58;6.88;;;12.60;96.30;;;;;;5046806;28;20086;-77
2021/12/15 05:48:54;;;;;;;15.60;6.90;;;12.60;96.30;;;;;;5035558;28;20046;-76
2021/12/15 05:51:20;;;;;;;33.50;8.23;;;12.60;96.30;;;;;;5032638;28;20049;-75
2021/12/15 05:53:46;;;;;;;11.82;5.18;;;12.60;96.40;;;;;;5033371;28;20037;-76
2021/12/15 05:56:13;;;;;;;20.45;8.70;;;12.60;96.40;;;;;;5033525;28;20051;-76
2021/12/15 05:58:39;;;;;;;20.35;8.10;;;12.60;96.40;;;;;;5033571;28;20080;-77
2021/12/15 06:01:05;;;;;;;9.23;4.95;;;12.60;96.30;;;;;;5034894;28;20033;-76
2021/12/15 06:03:32;;;;;;;14.07;9.15;;;12.60;96.40;;;;;;5032624;28;20041;-76
2021/12/15 06:05:57;;;;;;;13.63;6.43;;;12.60;96.30;;;;;;5035369;28;20423;-77
2021/12/15 06:08:23;;;;;;;23.23;9.00;;;12.60;96.30;;;;;;5032942;28;20044;-76
2021/12/15 06:10:49;;;;;;;9.75;5.20;;;12.60;96.40;;;;;;5034752;28;20017;-81
2021/12/15 06:13:15;;;;;;;13.05;6.75;;;12.60;96.40;;;;;;5032885;28;20037;-79
2021/12/15 06:15:42;;;;;;;26.33;9.75;;;12.60;96.40;;;;;;5032717;28;20036;-75
2021/12/15 06:18:14;;;;;;;13.43;6.50;;;12.60;96.40;;;;;;5034174;28;20061;-75
2021/12/15 06:20:41;;;;;;;11.95;5.95;;;12.60;96.40;;;;;;5033204;28;20048;-75
2021/12/15 06:23:17;;;;;;;18.95;8.57;;;12.60;96.40;;;;;;5035137;28;20030;-75
2021/12/15 06:25:43;;;;;;;9.52;6.38;;;12.60;96.40;;;;;;5048359;28;20036;-75
2021/12/15 06:28:09;;;;;;;21.08;6.65;;;12.60;96.40;;;;;;5047805;28;20476;-74
2021/12/15 06:30:37;;;;;;;17.55;7.88;;;12.60;96.40;;;;;;5044838;28;20029;-76
2021/12/15 06:33:04;;;;;;;14.63;7.32;;;12.60;96.40;;;;;;5045806;28;20660;-76
2021/12/15 06:35:32;;;;;;;13.27;5.60;;;12.50;96.40;;;;;;5050355;28;20060;-78
2021/12/15 06:37:58;;;;;;;13.02;7.28;;;12.50;96.40;;;;;;5047546;28;20033;-75
2021/12/15 06:40:24;;;;;;;15.40;6.95;;;12.60;96.40;;;;;;5039101;28;20022;-75
2021/12/15 06:42:50;;;;;;;17.92;8.48;;;12.60;96.40;;;;;;5035354;28;20109;-80
2021/12/15 06:45:20;;;;;;;11.73;5.50;;;12.60;96.40;;;;;;5049571;28;20057;-78
2021/12/15 06:58:25;;;;;;;22.40;8.18;;;12.50;96.40;;;;;;5044770;28;20036;-77
2021/12/15 07:00:55;;;;;;;13.05;6.95;;;12.50;96.40;;;;;;5044935;28;20037;-76
2021/12/15 07:03:22;;;;;;;12.13;6.15;;;12.50;96.40;;;;;;5032655;28;20385;-76
2021/12/15 07:05:48;;;;;;;17.55;7.70;;;12.50;96.40;;;;;;5039243;28;20029;-77
2021/12/15 07:08:15;;;;;;;14.77;4.75;;;12.50;96.40;;;;;;5038241;28;20068;-77
2021/12/15 07:10:48;;;;;;;11.57;5.13;;;12.50;96.40;;;;;;5051888;28;20128;-76
2021/12/15 07:13:17;;;;;;;13.65;6.30;;;12.60;96.40;;;;;;5042094;28;20507;-76
2021/12/15 07:15:45;;;;;;;13.18;5.50;;;12.60;96.40;;;;;;5056334;28;20033;-77
2021/12/15 07:18:12;;;;;;;18.50;9.48;;;12.50;96.40;;;;;;5040946;28;20048;-78
2021/12/15 07:20:47;;;;;;;9.32;5.35;;;12.50;96.40;;;;;;5034863;28;20037;-77
2021/12/15 07:23:16;;;;;;;15.98;6.93;;;12.60;96.40;;;;;;5049140;28;20040;-77
2021/12/15 07:25:45;;;;;;;14.40;6.85;;;12.50;96.40;;;;;;5036151;28;20490;-76
2021/12/15 07:28:12;;;;;;;12.20;6.47;;;12.60;96.50;;;;;;5040760;28;20162;-76
2021/12/15 07:30:38;;;;;;;20.60;8.57;;;12.50;96.40;;;;;;5056330;28;20544;-76
2021/12/15 07:33:05;;;;;;;12.25;4.97;;;12.60;96.40;;;;;;5042839;28;20127;-76
2021/12/15 07:35:31;;;;;;;12.85;6.20;;;12.50;96.40;;;;;;5055473;28;20051;-76
2021/12/15 07:37:57;;;;;;;18.30;8.52;;;12.60;96.50;;;;;;5055685;28;20028;-76
2021/12/15 07:40:24;;;;;;;11.68;5.95;;;12.60;96.40;;;;;;5055472;28;20029;-76
2021/12/15 07:43:11;;;;;;;13.40;7.00;;;12.60;96.40;;;;;;5042185;28;20025;-76
2021/12/15 07:45:44;;;;;;;9.85;4.53;;;12.60;96.40;;;;;;5055709;28;20041;-76
2021/12/15 07:48:12;;;;;;;12.43;7.53;;;12.60;96.40;;;;;;5055563;28;20048;-76
2021/12/15 07:50:39;;;;;;;18.98;8.07;;;12.60;96.40;;;;;;5042408;28;20095;-76
2021/12/15 07:53:06;;;;;;;26.38;6.20;;;12.60;96.40;;;;;;5055968;28;20394;-76
2021/12/15 07:55:32;;;;;;;12.77;7.20;;;12.60;96.50;;;;;;5055021;28;20029;-76
2021/12/15 07:57:58;;;;;;;20.75;7.32;;;12.50;96.50;;;;;;5055828;28;20044;-76
2021/12/15 08:00:24;;;;;;;9.63;4.65;;;12.50;96.50;;;;;;5055580;28;20086;-76
2021/12/15 08:02:51;;;;;;;18.85;8.43;;;12.50;96.50;;;;;;5043343;28;20034;-76
2021/12/15 08:05:17;;;;;;;8.02;3.95;;;12.50;96.50;;;;;;5039997;28;20029;-76
2021/12/15 08:07:43;;;;;;;14.73;6.47;;;12.50;96.60;;;;;;5044158;28;20079;-76
2021/12/15 08:10:11;;;;;;;16.60;6.88;;;12.50;96.60;;;;;;5039806;28;20384;-76
2021/12/15 08:12:39;;;;;;;20.40;6.03;;;12.50;96.60;;;;;;5043517;28;20030;-77
2021/12/15 08:15:07;;;;;;;15.52;6.85;;;12.50;96.60;;;;;;5054700;28;20036;-76
2021/12/15 08:17:33;;;;;;;11.60;5.00;;;12.50;96.60;;;;;;5054940;28;20029;-76
2021/12/15 08:19:58;;;;;;;12.48;6.13;;;12.50;96.60;;;;;;5048121;28;20033;-76
2021/12/15 08:22:24;;;;;;;8.93;4.90;;;12.50;96.60;;;;;;5048200;28;20040;-76
2021/12/15 08:24:50;;;;;;;7.38;4.03;;;12.50;96.70;;;;;;5041579;28;20040;-76
2021/12/15 08:27:16;;;;;;;17.77;7.00;;;12.50;96.60;;;;;;5051259;28;20469;-77
2021/12/15 08:29:41;;;;;;;9.02;5.57;;;12.50;96.60;;;;;;5034554;28;20034;-76
2021/12/15 08:32:07;;;;;;;16.35;8.52;;;12.50;96.60;;;;;;5035293;28;20079;-76
2021/12/15 08:34:32;;;;;;;10.73;6.65;;;12.50;96.60;;;;;;5044742;28;20439;-83
2021/12/15 08:36:58;;;;;;;13.93;6.30;;;12.60;96.60;;;;;;5053464;28;20055;-79
2021/12/15 08:39:24;;;;;;;19.60;6.32;;;12.50;96.60;;;;;;5035546;28;20037;-86
2021/12/15 08:41:50;;;;;;;11.45;5.13;;;12.50;96.60;;;;;;5037379;28;20033;-75
2021/12/15 08:44:16;;;;;;;14.73;5.68;;;12.50;96.60;;;;;;5054075;28;20060;-75
2021/12/15 08:46:45;;;;;;;8.32;5.05;;;12.40;96.60;;;;;;5041564;28;20102;-76
2021/12/15 08:49:16;;;;;;;11.48;6.30;;;12.50;96.60;;;;;;5045209;28;20102;-75
2021/12/15 08:51:43;;;;;;;15.43;6.03;;;12.50;96.60;;;;;;5037856;28;20041;-75
2021/12/15 08:54:14;;;;;;;12.50;5.97;;;12.50;96.60;;;;;;5041855;28;20072;-76
2021/12/15 08:56:41;;;;;;;14.00;7.40;;;12.40;96.60;;;;;;5033748;28;20034;-75
2021/12/15 08:59:07;;;;;;;12.25;4.85;;;12.40;96.60;;;;;;5046252;28;20480;-76
2021/12/15 09:01:33;;;;;;;16.42;6.53;;;12.40;96.60;;;;;;5040893;28;20025;-76
2021/12/15 09:03:59;;;;;;;10.77;5.68;;;12.40;96.60;;;;;;5054571;28;20037;-75
2021/12/15 09:06:24;;;;;;;10.50;4.57;;;12.40;96.60;;;;;;5052439;28;20534;-75
2021/12/15 09:08:50;;;;;;;11.27;4.25;;;12.30;96.60;;;;;;5034357;28;20389;-75
2021/12/15 09:11:20;;;;;;;11.13;5.85;;;12.30;96.70;;;;;;5034094;28;20101;-75
2021/12/15 09:13:49;;;;;;;10.15;4.13;;;12.30;96.60;;;;;;5033759;28;20041;-76
2021/12/15 09:16:16;;;;;;;6.50;3.83;;;12.40;96.60;;;;;;5034096;28;20043;-75
2021/12/15 09:18:44;;;;;;;10.82;4.78;;;12.40;96.60;;;;;;5043632;28;20029;-75
2021/12/15 09:21:13;;;;;;;10.32;3.33;;;12.30;96.60;;;;;;5036715;28;20041;-75
2021/12/15 09:23:39;;;;;;;4.85;2.97;;;12.40;96.60;;;;;;5044757;28;20060;-75
2021/12/15 09:26:05;;;;;;;11.15;5.07;;;12.40;96.60;;;;;;5036519;28;20032;-75
2021/12/15 09:28:32;;;;;;;22.27;6.32;;;12.30;96.50;;;;;;5053619;28;20586;-75
2021/12/15 09:30:59;;;;;;;8.10;4.95;;;12.40;96.60;;;;;;5036323;28;20029;-75
2021/12/15 09:33:30;;;;;;;10.38;4.85;;;12.40;96.60;;;;;;5045328;28;20041;-75
2021/12/15 09:35:57;;;;;;;12.25;4.93;;;12.40;96.50;;;;;;5040337;28;20073;-76
2021/12/15 09:38:26;;;;;;;9.68;4.18;;;12.40;96.60;;;;;;5053670;28;20039;-75
2021/12/15 09:40:57;;;;;;;11.98;5.22;;;12.50;96.50;;;;;;5041065;28;20044;-75
2021/12/15 09:43:27;;;;;;;16.63;5.20;;;12.40;96.50;;;;;;5053506;28;20108;-75
2021/12/15 09:46:02;;;;;;;13.93;4.65;;;12.40;96.50;;;;;;5053661;28;20025;-75
2021/12/15 10:02:31;;;;;;;11.52;5.35;;;12.40;96.60;;;;;;5043593;28;20060;-76
2021/12/15 10:20:49;;;;;;;9.45;4.93;;;12.40;96.60;;;;;;5049208;28;20400;-83
2021/12/15 10:23:22;;;;;;;15.30;4.95;;;12.40;96.60;;;;;;5043901;28;20033;-81
2021/12/15 10:25:52;;;;;;;17.60;5.65;;;12.40;96.60;;;;;;5042620;28;20052;-81
2021/12/15 10:28:27;;;;;;;10.57;3.40;;;12.40;96.50;;;;;;5052555;28;20037;-83
2021/12/15 10:30:59;;;;;;;7.70;4.35;;;12.40;96.50;;;;;;5049127;28;20037;-77
2021/12/15 10:33:47;;;;;;;7.72;4.03;;;12.50;96.50;;;;;;5042994;28;20503;-89
2021/12/15 10:36:17;;;;;;;10.68;4.47;;;12.50;96.40;;;;;;5035418;28;20103;-79
2021/12/15 10:38:47;;;;;;;8.45;4.30;;;12.50;96.30;;;;;;5045857;28;20032;-80
2021/12/15 10:41:21;;;;;;;10.70;3.42;;;12.50;96.30;;;;;;5033211;28;20036;-81
2021/12/15 10:43:54;;;;;;;13.15;4.95;;;12.50;96.30;;;;;;5034191;28;20021;-79
2021/12/15 10:46:33;;;;;;;7.55;4.07;;;12.50;96.30;;;;;;5038941;28;20025;-80
2021/12/15 10:49:14;;;;;;;7.53;3.88;;;12.50;96.20;;;;;;5037233;28;20041;-80
2021/12/15 10:51:44;;;;;;;6.65;2.30;;;12.50;96.20;;;;;;5034683;28;20053;-86
2021/12/15 10:54:21;;;;;;;7.60;3.20;;;12.50;96.20;;;;;;5047019;28;20049;-79
2021/12/15 10:57:15;;;;;;;7.35;2.75;;;12.50;96.20;;;;;;5033330;28;20389;-72
2021/12/15 10:59:51;;;;;;;7.30;3.78;;;12.50;96.20;;;;;;5031856;28;20124;-71
2021/12/15 11:02:25;;;;;;;13.55;4.57;;;12.60;96.10;;;;;;5032349;28;20041;-69
2021/12/15 11:05:07;;;;;;;14.02;4.97;;;12.50;96.00;;;;;;5032305;28;20500;-69
2021/12/15 11:07:37;;;;;;;9.27;3.25;;;12.50;96.00;;;;;;5052307;28;20104;-68
2021/12/15 11:10:10;;;;;;;3.83;2.38;;;12.50;96.00;;;;;;5038833;28;20487;-69
2021/12/15 11:12:40;;;;;;;11.40;4.03;;;12.50;96.00;;;;;;5051726;28;20032;-69
2021/12/15 11:15:22;;;;;;;7.05;3.58;;;12.40;96.00;;;;;;5032668;28;20037;-70
2021/12/15 11:17:54;;;;;;;8.50;3.88;;;12.50;96.10;;;;;;5047436;28;20033;-71
2021/12/15 11:20:25;;;;;;;6.60;3.35;;;12.50;96.10;;;;;;5051429;28;20033;-70
2021/12/15 11:22:57;;;;;;;5.88;2.92;;;12.50;96.10;;;;;;5051902;28;20029;-70
2021/12/15 11:25:38;;;;;;;3.97;2.65;;;12.50;96.10;;;;;;5040742;28;20039;-70
2021/12/15 11:28:27;;;;;;;17.05;2.95;;;12.50;96.10;;;;;;5049349;28;20500;-71
2021/12/15 11:30:55;;;;;;;7.82;2.85;;;12.50;96.10;;;;;;5051249;28;20033;-69
2021/12/15 11:33:49;;;;;;;3.58;2.33;;;12.50;96.10;;;;;;5049684;28;20041;-70
2021/12/15 11:36:32;;;;;;;9.00;4.70;;;12.50;96.10;;;;;;5036184;28;20033;-69
2021/12/15 11:39:16;;;;;;;11.07;4.00;;;12.60;96.00;;;;;;5034716;28;20025;-69
2021/12/15 11:41:45;;;;;;;13.88;4.00;;;12.60;96.00;;;;;;5031725;28;20056;-69
2021/12/15 11:44:14;;;;;;;5.65;3.20;;;12.60;95.90;;;;;;5044730;28;20073;-69
2021/12/15 11:46:44;;;;;;;13.52;4.03;;;12.70;95.90;;;;;;5045989;28;20037;-70
2021/12/15 11:49:20;;;;;;;6.82;4.05;;;12.60;95.90;;;;;;5035613;28;20041;-69
2021/12/15 11:52:01;;;;;;;7.97;3.55;;;12.60;95.90;;;;;;5045178;28;20107;-71
2021/12/15 11:54:30;;;;;;;6.97;3.38;;;12.60;95.90;;;;;;5031011;28;20397;-69
2021/12/15 11:56:57;;;;;;;10.93;3.83;;;12.60;95.90;;;;;;5031479;28;20029;-70
2021/12/15 11:59:35;;;;;;;5.53;3.17;;;12.60;95.90;;;;;;5033794;28;20045;-70
2021/12/15 12:02:05;;;;;;;9.55;3.33;;;12.60;95.90;;;;;;5055007;28;20091;-69
2021/12/15 12:05:08;;;;;;;4.32;2.67;;;12.60;95.90;;;;;;5042076;28;20494;-73
2021/12/15 12:07:55;;;;;;;9.50;3.80;;;12.60;95.90;;;;;;5029671;28;20473;-80
2021/12/15 12:10:29;;;;;;;4.43;1.70;;;12.60;95.90;;;;;;5049090;28;20048;-85
2021/12/15 12:13:07;;;;;;;3.45;2.20;;;12.60;95.90;;;;;;5040435;28;20036;-82
2021/12/15 12:15:37;;;;;;;7.88;3.70;;;12.60;95.90;;;;;;5041459;28;20033;-73
2021/12/15 12:18:15;;;;;;;12.32;4.43;;;12.70;95.90;;;;;;5043584;28;20040;-75
2021/12/15 12:20:47;;;;;;;7.75;4.05;;;12.70;95.90;;;;;;5035436;28;20042;-77
2021/12/15 12:23:16;;;;;;;2.28;1.63;;;12.60;95.90;;;;;;5034848;28;20040;-77
2021/12/15 12:25:47;;;;;;;7.78;3.58;;;12.60;95.90;;;;;;5035314;28;20041;-76
2021/12/15 12:28:16;;;;;;;6.18;3.42;;;12.60;95.90;;;;;;5046424;28;20025;-76
2021/12/15 12:30:49;;;;;;;12.45;4.03;;;12.60;96.00;;;;;;5035371;28;20060;-73
2021/12/15 12:33:17;;;;;;;4.55;2.75;;;12.60;96.00;;;;;;5046550;28;20076;-73
2021/12/15 12:35:49;;;;;;;7.50;3.72;;;12.50;96.00;;;;;;5035629;28;20037;-73
2021/12/15 12:38:27;;;;;;;8.38;2.75;;;12.60;96.00;;;;;;5035156;28;20445;-73
2021/12/15 12:41:00;;;;;;;7.72;2.70;;;12.60;96.00;;;;;;5037746;28;20086;-73
2021/12/15 12:43:29;;;;;;;4.93;2.35;;;12.60;96.10;;;;;;5043373;28;20488;-73
2021/12/15 12:46:07;;;;;;;6.93;2.65;;;12.60;96.10;;;;;;5052597;28;20467;-76
2021/12/15 12:59:53;;;;;;;10.52;2.85;;;12.60;96.10;;;;;;5036335;28;20064;-75
2021/12/15 13:05:26;;;;;;;8.48;2.85;;;12.70;96.10;;;;;;5033240;28;20037;-75
2021/12/15 13:07:56;;;;;;;6.25;2.70;;;12.60;96.20;;;;;;5036194;28;20033;-75
2021/12/15 13:10:47;;;;;;;4.13;2.03;;;12.60;96.10;;;;;;5036203;28;20033;-75
2021/12/15 13:13:16;;;;;;;9.43;2.53;;;12.70;96.20;;;;;;5033080;28;20033;-76
2021/12/15 13:15:50;;;;;;;6.32;2.58;;;12.60;96.10;;;;;;5032528;28;20492;-75
2021/12/15 13:18:17;;;;;;;8.77;2.58;;;12.70;96.10;;;;;;5037110;28;20841;-75
2021/12/15 13:20:57;;;;;;;1.85;1.45;;;12.60;95.90;;;;;;5033599;28;20025;-76
2021/12/15 13:23:48;;;;;;;6.75;1.80;;;12.60;95.80;;;;;;5033390;28;20043;-75
2021/12/15 13:29:37;;;;;;;6.45;1.70;;;12.60;95.50;;;;;;5033235;28;20108;-75
2021/12/15 13:32:03;;;;;;;3.95;1.60;;;12.60;95.40;;;;;;5034645;28;20040;-75
2021/12/15 13:34:46;;;;;;;2.10;1.35;;;12.50;95.30;;;;;;5033134;28;20516;-75
2021/12/15 13:37:50;;;;;;;5.40;1.60;;;12.50;95.30;;;;;;5032803;28;20055;-76
2021/12/15 13:40:16;;;;;;;3.47;1.40;;;12.50;95.20;;;;;;5031461;28;20026;-75
2021/12/15 13:43:02;;;;;;;2.40;1.35;;;12.60;95.10;;;;;;5033183;28;20037;-75
2021/12/15 13:45:30;;;;;;;1.60;1.20;;;12.60;95.10;;;;;;5033341;28;20029;-75
2021/12/15 13:47:57;;;;;;;3.35;1.75;;;12.60;95.10;;;;;;5032282;28;20026;-75
2021/12/15 13:50:27;;;;;;;1.48;1.17;;;12.60;95.00;;;;;;5031700;28;20049;-76
2021/12/15 13:52:59;;;;;;;3.95;1.48;;;12.60;95.00;;;;;;5033396;28;20025;-75
2021/12/15 13:55:38;;;;;;;1.95;1.25;;;12.70;94.90;;;;;;5034110;28;20503;-75
2021/12/15 13:58:14;;;;;;;3.38;1.63;;;12.70;94.80;;;;;;5032350;28;20034;-76
2021/12/15 14:00:46;;;;;;;2.85;1.38;;;12.70;94.70;;;;;;5031013;28;20029;-75
2021/12/15 14:03:16;;;;;;;1.58;1.10;;;12.70;94.60;;;;;;5031655;28;20469;-75
2021/12/15 14:06:18;;;;;;;4.13;1.30;;;12.70;94.60;;;;;;5034719;28;20060;-75
2021/12/15 14:08:49;;;;;;;1.83;1.38;;;12.70;94.70;;;;;;5038615;28;20049;-75
2021/12/15 14:11:27;;;;;;;1.25;1.00;;;12.70;94.60;;;;;;5033780;28;20029;-75
2021/12/15 14:13:55;;;;;;;2.53;0.82;;;12.70;94.60;;;;;;5032219;28;20071;-76
2021/12/15 14:16:34;;;;;;;3.90;1.70;;;12.70;94.50;;;;;;5034179;28;20033;-75
2021/12/15 14:19:06;;;;;;;1.00;0.82;;;12.70;94.40;;;;;;5032710;28;20503;-75
2021/12/15 14:21:34;;;;;;;7.10;1.40;;;12.70;94.30;;;;;;5031385;28;20075;-72
2021/12/15 14:23:59;;;;;;;2.10;1.30;;;12.80;94.30;;;;;;5033046;28;20037;-75